sensor_id;sensor_type;location;lat;lon;timestamp;temperature;humidity
1958;DHT22;979;51.076;13.748;2023-07-24T00:02:01;23.90;57.40
1958;DHT22;979;51.076;13.748;2023-07-24T00:04:31;23.80;56.80
1958;DHT22;979;51.076;13.748;2023-07-24T00:07:00;23.80;56.90
1958;DHT22;979;51.076;13.748;2023-07-24T00:09:29;23.70;56.80
1958;DHT22;979;51.076;13.748;2023-07-24T00:11:59;23.70;57.00
1958;DHT22;979;51.076;13.748;2023-07-24T00:14:27;23.60;57.00
1958;DHT22;979;51.076;13.748;2023-07-24T00:16:56;23.60;57.10
1958;DHT22;979;51.076;13.748;2023-07-24T00:19:24;23.50;57.20
1958;DHT22;979;51.076;13.748;2023-07-24T00:21:56;23.50;57.40
1958;DHT22;979;51.076;13.748;2023-07-24T00:24:24;23.40;57.50
1958;DHT22;979;51.076;13.748;2023-07-24T00:26:54;23.30;57.50
1958;DHT22;979;51.076;13.748;2023-07-24T00:29:23;23.40;57.70
1958;DHT22;979;51.076;13.748;2023-07-24T00:31:53;23.30;57.70
1958;DHT22;979;51.076;13.748;2023-07-24T00:34:21;23.30;57.90
1958;DHT22;979;51.076;13.748;2023-07-24T00:36:51;23.30;58.00
1958;DHT22;979;51.076;13.748;2023-07-24T00:39:20;23.30;58.20
1958;DHT22;979;51.076;13.748;2023-07-24T00:41:48;23.20;58.10
1958;DHT22;979;51.076;13.748;2023-07-24T00:44:18;23.30;58.20
1958;DHT22;979;51.076;13.748;2023-07-24T00:46:47;23.30;58.20
1958;DHT22;979;51.076;13.748;2023-07-24T00:49:15;23.20;58.10
1958;DHT22;979;51.076;13.748;2023-07-24T00:51:44;23.20;58.20
1958;DHT22;979;51.076;13.748;2023-07-24T00:54:14;23.20;58.30
1958;DHT22;979;51.076;13.748;2023-07-24T00:56:45;23.20;58.40
1958;DHT22;979;51.076;13.748;2023-07-24T00:59:16;23.20;58.50
1958;DHT22;979;51.076;13.748;2023-07-24T01:01:44;23.20;58.60
1958;DHT22;979;51.076;13.748;2023-07-24T01:04:15;23.20;58.70
1958;DHT22;979;51.076;13.748;2023-07-24T01:06:43;23.10;58.70
1958;DHT22;979;51.076;13.748;2023-07-24T01:09:14;23.10;58.80
1958;DHT22;979;51.076;13.748;2023-07-24T01:11:47;23.10;59.00
1958;DHT22;979;51.076;13.748;2023-07-24T01:14:22;23.00;59.60
1958;DHT22;979;51.076;13.748;2023-07-24T01:16:54;23.00;59.10
1958;DHT22;979;51.076;13.748;2023-07-24T01:19:35;23.00;59.10
1958;DHT22;979;51.076;13.748;2023-07-24T01:22:12;23.00;59.20
1958;DHT22;979;51.076;13.748;2023-07-24T01:24:52;23.00;59.30
1958;DHT22;979;51.076;13.748;2023-07-24T01:27:27;22.90;59.30
1958;DHT22;979;51.076;13.748;2023-07-24T01:29:56;22.90;59.30
1958;DHT22;979;51.076;13.748;2023-07-24T01:32:24;22.90;59.40
1958;DHT22;979;51.076;13.748;2023-07-24T01:34:53;22.90;59.50
1958;DHT22;979;51.076;13.748;2023-07-24T01:37:22;22.90;59.60
1958;DHT22;979;51.076;13.748;2023-07-24T01:39:53;22.90;59.50
1958;DHT22;979;51.076;13.748;2023-07-24T01:42:23;22.90;59.60
1958;DHT22;979;51.076;13.748;2023-07-24T01:44:56;22.90;59.50
1958;DHT22;979;51.076;13.748;2023-07-24T01:47:24;22.90;59.60
1958;DHT22;979;51.076;13.748;2023-07-24T01:49:55;22.90;59.60
1958;DHT22;979;51.076;13.748;2023-07-24T01:52:26;22.90;59.70
1958;DHT22;979;51.076;13.748;2023-07-24T01:54:54;22.90;59.70
1958;DHT22;979;51.076;13.748;2023-07-24T01:57:22;22.90;59.70
1958;DHT22;979;51.076;13.748;2023-07-24T01:59:51;22.90;59.80
1958;DHT22;979;51.076;13.748;2023-07-24T02:02:20;22.90;59.80
1958;DHT22;979;51.076;13.748;2023-07-24T02:04:48;22.90;59.90
1958;DHT22;979;51.076;13.748;2023-07-24T02:07:17;22.90;60.00
1958;DHT22;979;51.076;13.748;2023-07-24T02:09:47;22.90;60.20
1958;DHT22;979;51.076;13.748;2023-07-24T02:12:17;22.90;60.30
1958;DHT22;979;51.076;13.748;2023-07-24T02:14:48;22.80;60.40
1958;DHT22;979;51.076;13.748;2023-07-24T02:17:20;22.80;60.60
1958;DHT22;979;51.076;13.748;2023-07-24T02:19:49;22.80;60.70
1958;DHT22;979;51.076;13.748;2023-07-24T02:22:17;22.80;61.60
1958;DHT22;979;51.076;13.748;2023-07-24T02:24:45;22.70;60.80
1958;DHT22;979;51.076;13.748;2023-07-24T02:27:25;22.70;61.00
1958;DHT22;979;51.076;13.748;2023-07-24T02:29:57;22.70;61.10
1958;DHT22;979;51.076;13.748;2023-07-24T02:32:26;22.70;61.10
1958;DHT22;979;51.076;13.748;2023-07-24T02:34:55;22.60;61.10
1958;DHT22;979;51.076;13.748;2023-07-24T02:37:25;22.60;61.20
1958;DHT22;979;51.076;13.748;2023-07-24T02:39:56;22.60;61.40
1958;DHT22;979;51.076;13.748;2023-07-24T02:42:24;22.60;61.50
1958;DHT22;979;51.076;13.748;2023-07-24T02:44:52;22.60;61.60
1958;DHT22;979;51.076;13.748;2023-07-24T02:47:21;22.60;61.60
1958;DHT22;979;51.076;13.748;2023-07-24T02:49:50;22.60;61.70
1958;DHT22;979;51.076;13.748;2023-07-24T02:52:19;22.60;61.80
1958;DHT22;979;51.076;13.748;2023-07-24T02:54:47;22.60;62.50
1958;DHT22;979;51.076;13.748;2023-07-24T02:57:15;22.60;61.70
1958;DHT22;979;51.076;13.748;2023-07-24T02:59:43;22.60;61.70
1958;DHT22;979;51.076;13.748;2023-07-24T03:02:11;22.60;61.60
1958;DHT22;979;51.076;13.748;2023-07-24T03:04:42;22.60;61.50
1958;DHT22;979;51.076;13.748;2023-07-24T03:07:12;22.70;61.50
1958;DHT22;979;51.076;13.748;2023-07-24T03:09:41;22.70;62.30
1958;DHT22;979;51.076;13.748;2023-07-24T03:12:09;22.70;61.40
1958;DHT22;979;51.076;13.748;2023-07-24T03:14:38;22.70;61.40
1958;DHT22;979;51.076;13.748;2023-07-24T03:17:06;22.80;61.30
1958;DHT22;979;51.076;13.748;2023-07-24T03:19:34;22.80;61.30
1958;DHT22;979;51.076;13.748;2023-07-24T03:22:02;22.80;61.30
1958;DHT22;979;51.076;13.748;2023-07-24T03:24:32;22.80;61.10
1958;DHT22;979;51.076;13.748;2023-07-24T03:27:01;22.90;61.20
1958;DHT22;979;51.076;13.748;2023-07-24T03:29:29;22.90;61.20
1958;DHT22;979;51.076;13.748;2023-07-24T03:31:57;22.90;61.10
1958;DHT22;979;51.076;13.748;2023-07-24T03:34:25;23.00;61.10
1958;DHT22;979;51.076;13.748;2023-07-24T03:36:54;23.00;61.10
1958;DHT22;979;51.076;13.748;2023-07-24T03:39:22;23.00;61.00
1958;DHT22;979;51.076;13.748;2023-07-24T03:41:53;23.00;61.00
1958;DHT22;979;51.076;13.748;2023-07-24T03:44:23;23.10;61.00
1958;DHT22;979;51.076;13.748;2023-07-24T03:46:51;23.10;60.90
1958;DHT22;979;51.076;13.748;2023-07-24T03:49:20;23.10;60.90
1958;DHT22;979;51.076;13.748;2023-07-24T03:51:49;23.20;60.90
1958;DHT22;979;51.076;13.748;2023-07-24T03:54:19;23.20;60.90
1958;DHT22;979;51.076;13.748;2023-07-24T03:56:47;23.20;60.90
1958;DHT22;979;51.076;13.748;2023-07-24T03:59:17;23.30;60.90
1958;DHT22;979;51.076;13.748;2023-07-24T04:01:45;23.30;61.00
1958;DHT22;979;51.076;13.748;2023-07-24T04:04:13;23.30;60.90
1958;DHT22;979;51.076;13.748;2023-07-24T04:06:41;23.30;60.80
1958;DHT22;979;51.076;13.748;2023-07-24T04:09:09;23.30;61.50
1958;DHT22;979;51.076;13.748;2023-07-24T04:11:42;23.30;60.70
1958;DHT22;979;51.076;13.748;2023-07-24T04:14:10;23.40;60.70
1958;DHT22;979;51.076;13.748;2023-07-24T04:16:40;23.40;60.70
1958;DHT22;979;51.076;13.748;2023-07-24T04:19:08;23.40;60.50
1958;DHT22;979;51.076;13.748;2023-07-24T04:21:37;23.50;60.70
1958;DHT22;979;51.076;13.748;2023-07-24T04:24:05;23.50;61.40
1958;DHT22;979;51.076;13.748;2023-07-24T04:26:33;23.50;60.70
1958;DHT22;979;51.076;13.748;2023-07-24T04:29:03;23.60;60.60
1958;DHT22;979;51.076;13.748;2023-07-24T04:31:32;23.60;60.60
1958;DHT22;979;51.076;13.748;2023-07-24T04:34:01;23.60;60.60
1958;DHT22;979;51.076;13.748;2023-07-24T04:36:32;23.70;60.60
1958;DHT22;979;51.076;13.748;2023-07-24T04:39:02;23.70;60.60
1958;DHT22;979;51.076;13.748;2023-07-24T04:41:32;23.70;61.40
1958;DHT22;979;51.076;13.748;2023-07-24T04:44:01;23.80;60.80
1958;DHT22;979;51.076;13.748;2023-07-24T04:46:29;23.80;60.80
1958;DHT22;979;51.076;13.748;2023-07-24T04:49:02;23.80;60.80
1958;DHT22;979;51.076;13.748;2023-07-24T04:51:30;23.80;60.80
1958;DHT22;979;51.076;13.748;2023-07-24T04:54:02;23.80;61.00
1958;DHT22;979;51.076;13.748;2023-07-24T04:56:30;23.90;61.10
1958;DHT22;979;51.076;13.748;2023-07-24T04:59:01;23.90;61.00
1958;DHT22;979;51.076;13.748;2023-07-24T05:01:29;23.90;61.00
1958;DHT22;979;51.076;13.748;2023-07-24T05:03:57;24.00;61.20
1958;DHT22;979;51.076;13.748;2023-07-24T05:06:29;24.00;61.20
1958;DHT22;979;51.076;13.748;2023-07-24T05:08:57;24.10;61.20
1958;DHT22;979;51.076;13.748;2023-07-24T05:11:26;24.10;61.10
1958;DHT22;979;51.076;13.748;2023-07-24T05:13:54;24.20;61.10
1958;DHT22;979;51.076;13.748;2023-07-24T05:16:22;24.20;61.00
1958;DHT22;979;51.076;13.748;2023-07-24T05:18:50;24.30;61.10
1958;DHT22;979;51.076;13.748;2023-07-24T05:21:20;24.40;61.10
1958;DHT22;979;51.076;13.748;2023-07-24T05:23:50;24.40;61.20
1958;DHT22;979;51.076;13.748;2023-07-24T05:26:18;24.50;61.40
1958;DHT22;979;51.076;13.748;2023-07-24T05:28:48;24.60;61.30
1958;DHT22;979;51.076;13.748;2023-07-24T05:31:17;24.70;61.00
1958;DHT22;979;51.076;13.748;2023-07-24T05:33:45;24.70;60.70
1958;DHT22;979;51.076;13.748;2023-07-24T05:36:13;24.80;60.70
1958;DHT22;979;51.076;13.748;2023-07-24T05:38:41;24.80;60.70
1958;DHT22;979;51.076;13.748;2023-07-24T05:41:10;24.80;60.80
1958;DHT22;979;51.076;13.748;2023-07-24T05:43:39;24.90;60.90
1958;DHT22;979;51.076;13.748;2023-07-24T05:46:07;24.90;60.90
1958;DHT22;979;51.076;13.748;2023-07-24T05:48:38;24.90;60.80
1958;DHT22;979;51.076;13.748;2023-07-24T05:51:06;24.90;60.90
1958;DHT22;979;51.076;13.748;2023-07-24T05:53:36;25.00;61.00
1958;DHT22;979;51.076;13.748;2023-07-24T05:56:04;25.10;60.90
1958;DHT22;979;51.076;13.748;2023-07-24T05:58:36;25.10;60.90
1958;DHT22;979;51.076;13.748;2023-07-24T06:01:07;25.20;60.70
1958;DHT22;979;51.076;13.748;2023-07-24T06:03:39;25.30;60.70
1958;DHT22;979;51.076;13.748;2023-07-24T06:06:09;25.30;60.70
1958;DHT22;979;51.076;13.748;2023-07-24T06:08:37;25.40;60.70
1958;DHT22;979;51.076;13.748;2023-07-24T06:11:08;25.50;60.80
1958;DHT22;979;51.076;13.748;2023-07-24T06:13:38;25.50;60.80
1958;DHT22;979;51.076;13.748;2023-07-24T06:16:06;25.50;60.80
1958;DHT22;979;51.076;13.748;2023-07-24T06:18:37;25.50;60.90
1958;DHT22;979;51.076;13.748;2023-07-24T06:21:05;25.50;60.80
1958;DHT22;979;51.076;13.748;2023-07-24T06:23:34;25.50;60.80
1958;DHT22;979;51.076;13.748;2023-07-24T06:26:02;25.50;60.80
1958;DHT22;979;51.076;13.748;2023-07-24T06:28:30;25.50;60.70
1958;DHT22;979;51.076;13.748;2023-07-24T06:31:06;25.60;60.80
1958;DHT22;979;51.076;13.748;2023-07-24T06:33:34;25.60;60.60
1958;DHT22;979;51.076;13.748;2023-07-24T06:36:02;25.70;60.40
1958;DHT22;979;51.076;13.748;2023-07-24T06:38:30;25.80;60.30
1958;DHT22;979;51.076;13.748;2023-07-24T06:40:59;25.90;60.20
1958;DHT22;979;51.076;13.748;2023-07-24T06:43:27;26.00;60.00
1958;DHT22;979;51.076;13.748;2023-07-24T06:45:55;26.10;59.70
1958;DHT22;979;51.076;13.748;2023-07-24T06:48:25;26.20;59.40
1958;DHT22;979;51.076;13.748;2023-07-24T06:50:53;26.20;58.90
1958;DHT22;979;51.076;13.748;2023-07-24T06:53:21;26.30;58.40
1958;DHT22;979;51.076;13.748;2023-07-24T06:55:49;26.50;58.00
1958;DHT22;979;51.076;13.748;2023-07-24T06:58:17;26.70;57.90
1958;DHT22;979;51.076;13.748;2023-07-24T07:00:46;26.90;57.60
1958;DHT22;979;51.076;13.748;2023-07-24T07:03:14;27.00;57.30
1958;DHT22;979;51.076;13.748;2023-07-24T07:05:43;27.30;57.20
1958;DHT22;979;51.076;13.748;2023-07-24T07:08:14;27.40;56.70
1958;DHT22;979;51.076;13.748;2023-07-24T07:10:45;27.60;56.50
1958;DHT22;979;51.076;13.748;2023-07-24T07:13:17;27.80;56.20
1958;DHT22;979;51.076;13.748;2023-07-24T07:15:45;27.90;56.50
1958;DHT22;979;51.076;13.748;2023-07-24T07:18:13;28.00;55.80
1958;DHT22;979;51.076;13.748;2023-07-24T07:20:46;28.10;55.80
1958;DHT22;979;51.076;13.748;2023-07-24T07:23:15;28.20;55.70
1958;DHT22;979;51.076;13.748;2023-07-24T07:25:43;28.40;55.70
1958;DHT22;979;51.076;13.748;2023-07-24T07:28:12;28.60;55.30
1958;DHT22;979;51.076;13.748;2023-07-24T07:30:43;28.70;55.30
1958;DHT22;979;51.076;13.748;2023-07-24T07:33:12;28.90;55.00
1958;DHT22;979;51.076;13.748;2023-07-24T07:35:41;29.00;54.50
1958;DHT22;979;51.076;13.748;2023-07-24T07:38:14;29.10;53.80
1958;DHT22;979;51.076;13.748;2023-07-24T07:40:44;29.20;53.70
1958;DHT22;979;51.076;13.748;2023-07-24T07:43:13;29.30;53.60
1958;DHT22;979;51.076;13.748;2023-07-24T07:45:44;29.30;53.20
1958;DHT22;979;51.076;13.748;2023-07-24T07:48:12;29.30;53.00
1958;DHT22;979;51.076;13.748;2023-07-24T07:50:40;29.40;53.00
1958;DHT22;979;51.076;13.748;2023-07-24T07:53:08;29.50;52.50
1958;DHT22;979;51.076;13.748;2023-07-24T07:55:38;29.50;52.40
1958;DHT22;979;51.076;13.748;2023-07-24T07:58:06;29.50;52.30
1958;DHT22;979;51.076;13.748;2023-07-24T08:00:35;29.50;52.20
1958;DHT22;979;51.076;13.748;2023-07-24T08:03:05;29.50;52.10
1958;DHT22;979;51.076;13.748;2023-07-24T08:05:33;29.50;51.90
1958;DHT22;979;51.076;13.748;2023-07-24T08:08:09;29.50;51.60
1958;DHT22;979;51.076;13.748;2023-07-24T08:10:39;29.40;51.20
1958;DHT22;979;51.076;13.748;2023-07-24T08:13:08;29.40;51.10
1958;DHT22;979;51.076;13.748;2023-07-24T08:15:36;29.40;51.20
1958;DHT22;979;51.076;13.748;2023-07-24T08:18:06;29.50;51.20
1958;DHT22;979;51.076;13.748;2023-07-24T08:20:35;29.60;51.20
1958;DHT22;979;51.076;13.748;2023-07-24T08:23:04;29.70;51.00
1958;DHT22;979;51.076;13.748;2023-07-24T08:25:32;29.80;50.80
1958;DHT22;979;51.076;13.748;2023-07-24T08:28:02;29.80;50.60
1958;DHT22;979;51.076;13.748;2023-07-24T08:30:33;29.90;50.40
1958;DHT22;979;51.076;13.748;2023-07-24T08:33:04;30.00;50.20
1958;DHT22;979;51.076;13.748;2023-07-24T08:35:32;30.10;50.20
1958;DHT22;979;51.076;13.748;2023-07-24T08:38:00;30.20;50.20
1958;DHT22;979;51.076;13.748;2023-07-24T08:40:29;30.40;49.90
1958;DHT22;979;51.076;13.748;2023-07-24T08:42:57;30.50;49.70
1958;DHT22;979;51.076;13.748;2023-07-24T08:45:28;30.70;49.40
1958;DHT22;979;51.076;13.748;2023-07-24T08:47:58;30.80;49.10
1958;DHT22;979;51.076;13.748;2023-07-24T08:57:57;31.20;48.80
1958;DHT22;979;51.076;13.748;2023-07-24T09:31:53;33.20;47.20
1958;DHT22;979;51.076;13.748;2023-07-24T09:34:25;33.20;47.90
1958;DHT22;979;51.076;13.748;2023-07-24T09:37:30;33.20;47.70
1958;DHT22;979;51.076;13.748;2023-07-24T09:40:14;33.20;46.90
1958;DHT22;979;51.076;13.748;2023-07-24T09:42:43;33.20;47.30
1958;DHT22;979;51.076;13.748;2023-07-24T09:45:31;33.20;47.30
1958;DHT22;979;51.076;13.748;2023-07-24T09:48:06;33.30;47.40
1958;DHT22;979;51.076;13.748;2023-07-24T09:50:59;33.50;47.80
1958;DHT22;979;51.076;13.748;2023-07-24T09:53:32;33.20;47.40
1958;DHT22;979;51.076;13.748;2023-07-24T09:56:02;33.20;47.50
1958;DHT22;979;51.076;13.748;2023-07-24T09:58:36;33.00;47.40
1958;DHT22;979;51.076;13.748;2023-07-24T10:01:14;32.60;47.10
1958;DHT22;979;51.076;13.748;2023-07-24T10:03:48;32.80;47.50
1958;DHT22;979;51.076;13.748;2023-07-24T10:06:19;32.70;47.70
1958;DHT22;979;51.076;13.748;2023-07-24T10:08:48;32.40;47.70
1958;DHT22;979;51.076;13.748;2023-07-24T10:11:17;32.40;47.80
1958;DHT22;979;51.076;13.748;2023-07-24T10:13:46;32.20;48.10
1958;DHT22;979;51.076;13.748;2023-07-24T10:16:22;32.10;48.20
1958;DHT22;979;51.076;13.748;2023-07-24T10:18:55;32.20;48.60
1958;DHT22;979;51.076;13.748;2023-07-24T10:21:34;32.30;48.40
1958;DHT22;979;51.076;13.748;2023-07-24T10:24:19;32.30;48.10
1958;DHT22;979;51.076;13.748;2023-07-24T10:27:07;32.40;48.90
1958;DHT22;979;51.076;13.748;2023-07-24T10:29:36;32.50;48.50
1958;DHT22;979;51.076;13.748;2023-07-24T10:32:22;32.60;48.50
1958;DHT22;979;51.076;13.748;2023-07-24T10:35:06;32.70;48.70
1958;DHT22;979;51.076;13.748;2023-07-24T10:37:38;32.40;47.60
1958;DHT22;979;51.076;13.748;2023-07-24T10:40:22;32.30;48.30
1958;DHT22;979;51.076;13.748;2023-07-24T10:43:00;32.00;48.30
1958;DHT22;979;51.076;13.748;2023-07-24T10:45:45;31.20;54.50
1958;DHT22;979;51.076;13.748;2023-07-24T10:48:14;29.80;57.90
1958;DHT22;979;51.076;13.748;2023-07-24T10:51:05;29.10;59.00
1958;DHT22;979;51.076;13.748;2023-07-24T10:53:42;28.60;61.80
1958;DHT22;979;51.076;13.748;2023-07-24T10:56:11;28.30;62.30
1958;DHT22;979;51.076;13.748;2023-07-24T10:58:39;28.30;63.20
1958;DHT22;979;51.076;13.748;2023-07-24T11:01:08;28.10;63.00
1958;DHT22;979;51.076;13.748;2023-07-24T11:03:39;28.10;62.70
1958;DHT22;979;51.076;13.748;2023-07-24T11:06:14;28.10;62.80
1958;DHT22;979;51.076;13.748;2023-07-24T11:08:51;28.20;64.20
1958;DHT22;979;51.076;13.748;2023-07-24T11:11:19;28.50;63.60
1958;DHT22;979;51.076;13.748;2023-07-24T11:13:48;28.70;62.70
1958;DHT22;979;51.076;13.748;2023-07-24T11:16:16;29.00;61.20
1958;DHT22;979;51.076;13.748;2023-07-24T11:18:46;29.30;60.30
1958;DHT22;979;51.076;13.748;2023-07-24T11:21:22;29.70;59.30
1958;DHT22;979;51.076;13.748;2023-07-24T11:23:53;30.10;57.90
1958;DHT22;979;51.076;13.748;2023-07-24T11:26:23;30.40;57.10
1958;DHT22;979;51.076;13.748;2023-07-24T11:28:52;30.60;56.80
1958;DHT22;979;51.076;13.748;2023-07-24T11:31:21;30.90;56.40
1958;DHT22;979;51.076;13.748;2023-07-24T11:33:50;31.00;56.30
1958;DHT22;979;51.076;13.748;2023-07-24T11:36:19;31.10;56.00
1958;DHT22;979;51.076;13.748;2023-07-24T11:38:50;31.20;55.80
1958;DHT22;979;51.076;13.748;2023-07-24T11:41:19;31.10;55.60
1958;DHT22;979;51.076;13.748;2023-07-24T11:43:50;31.00;55.50
1958;DHT22;979;51.076;13.748;2023-07-24T11:46:23;31.10;55.40
1958;DHT22;979;51.076;13.748;2023-07-24T11:48:55;30.70;55.10
1958;DHT22;979;51.076;13.748;2023-07-24T11:51:26;30.80;55.20
1958;DHT22;979;51.076;13.748;2023-07-24T11:54:07;30.80;55.00
1958;DHT22;979;51.076;13.748;2023-07-24T11:56:36;30.80;54.30
1958;DHT22;979;51.076;13.748;2023-07-24T11:59:12;30.80;54.80
1958;DHT22;979;51.076;13.748;2023-07-24T12:01:41;30.80;53.90
1958;DHT22;979;51.076;13.748;2023-07-24T12:04:09;30.90;54.30
1958;DHT22;979;51.076;13.748;2023-07-24T12:06:39;31.00;54.50
1958;DHT22;979;51.076;13.748;2023-07-24T12:09:10;31.10;54.40
1958;DHT22;979;51.076;13.748;2023-07-24T12:11:39;31.00;54.40
1958;DHT22;979;51.076;13.748;2023-07-24T12:14:12;31.30;54.80
1958;DHT22;979;51.076;13.748;2023-07-24T12:16:41;31.30;54.50
1958;DHT22;979;51.076;13.748;2023-07-24T12:19:10;31.30;54.60
1958;DHT22;979;51.076;13.748;2023-07-24T12:21:39;31.30;54.70
1958;DHT22;979;51.076;13.748;2023-07-24T12:24:09;31.20;55.00
1958;DHT22;979;51.076;13.748;2023-07-24T12:26:37;31.20;55.10
1958;DHT22;979;51.076;13.748;2023-07-24T12:29:05;31.10;55.30
1958;DHT22;979;51.076;13.748;2023-07-24T12:31:34;31.10;55.60
1958;DHT22;979;51.076;13.748;2023-07-24T12:34:03;30.90;55.60
1958;DHT22;979;51.076;13.748;2023-07-24T12:36:32;30.70;56.50
1958;DHT22;979;51.076;13.748;2023-07-24T12:39:05;30.30;56.00
1958;DHT22;979;51.076;13.748;2023-07-24T12:41:36;30.50;55.60
1958;DHT22;979;51.076;13.748;2023-07-24T12:44:05;30.40;55.30
1958;DHT22;979;51.076;13.748;2023-07-24T12:46:34;30.20;55.10
1958;DHT22;979;51.076;13.748;2023-07-24T12:49:02;30.00;55.40
1958;DHT22;979;51.076;13.748;2023-07-24T12:51:30;29.60;56.10
1958;DHT22;979;51.076;13.748;2023-07-24T12:53:59;29.30;57.40
1958;DHT22;979;51.076;13.748;2023-07-24T12:56:49;28.80;58.10
1958;DHT22;979;51.076;13.748;2023-07-24T12:59:18;28.10;59.20
1958;DHT22;979;51.076;13.748;2023-07-24T13:01:48;27.50;60.30
1958;DHT22;979;51.076;13.748;2023-07-24T13:04:17;26.80;63.10
1958;DHT22;979;51.076;13.748;2023-07-24T13:06:46;25.70;65.80
1958;DHT22;979;51.076;13.748;2023-07-24T13:09:15;24.80;68.20
1958;DHT22;979;51.076;13.748;2023-07-24T13:11:44;24.10;70.70
1958;DHT22;979;51.076;13.748;2023-07-24T13:14:17;23.70;73.10
1958;DHT22;979;51.076;13.748;2023-07-24T13:16:46;23.40;75.30
1958;DHT22;979;51.076;13.748;2023-07-24T13:19:16;23.20;76.40
1958;DHT22;979;51.076;13.748;2023-07-24T13:21:47;23.20;77.70
1958;DHT22;979;51.076;13.748;2023-07-24T13:24:16;23.30;78.20
1958;DHT22;979;51.076;13.748;2023-07-24T13:26:44;23.50;79.20
1958;DHT22;979;51.076;13.748;2023-07-24T13:29:15;23.90;79.70
1958;DHT22;979;51.076;13.748;2023-07-24T13:31:44;24.20;79.30
1958;DHT22;979;51.076;13.748;2023-07-24T13:34:12;24.50;79.20
1958;DHT22;979;51.076;13.748;2023-07-24T13:36:41;24.80;79.10
1958;DHT22;979;51.076;13.748;2023-07-24T13:39:09;25.10;79.40
1958;DHT22;979;51.076;13.748;2023-07-24T13:41:38;25.30;78.60
1958;DHT22;979;51.076;13.748;2023-07-24T13:44:06;25.50;78.60
1958;DHT22;979;51.076;13.748;2023-07-24T13:46:36;25.80;78.40
1958;DHT22;979;51.076;13.748;2023-07-24T13:49:06;26.10;78.10
1958;DHT22;979;51.076;13.748;2023-07-24T13:51:35;26.60;78.90
1958;DHT22;979;51.076;13.748;2023-07-24T13:54:04;27.20;78.10
1958;DHT22;979;51.076;13.748;2023-07-24T13:56:35;27.70;76.50
1958;DHT22;979;51.076;13.748;2023-07-24T14:21:39;30.80;70.00
1958;DHT22;979;51.076;13.748;2023-07-24T14:27:37;32.10;64.80
1958;DHT22;979;51.076;13.748;2023-07-24T14:37:32;33.00;63.70
1958;DHT22;979;51.076;13.748;2023-07-24T14:40:09;32.90;61.70
1958;DHT22;979;51.076;13.748;2023-07-24T14:42:57;32.70;61.90
1958;DHT22;979;51.076;13.748;2023-07-24T14:45:43;32.10;61.40
1958;DHT22;979;51.076;13.748;2023-07-24T15:17:30;32.70;61.80
1958;DHT22;979;51.076;13.748;2023-07-24T16:19:33;35.30;54.60
1958;DHT22;979;51.076;13.748;2023-07-24T16:32:00;37.00;52.10
1958;DHT22;979;51.076;13.748;2023-07-24T19:23:42;25.50;57.40
1958;DHT22;979;51.076;13.748;2023-07-24T19:26:12;25.20;58.40
1958;DHT22;979;51.076;13.748;2023-07-24T19:29:06;25.00;59.10
1958;DHT22;979;51.076;13.748;2023-07-24T19:33:47;24.70;59.80
1958;DHT22;979;51.076;13.748;2023-07-24T19:36:10;24.50;60.10
1958;DHT22;979;51.076;13.748;2023-07-24T19:39:08;24.20;61.10
1958;DHT22;979;51.076;13.748;2023-07-24T19:42:41;23.80;62.50
1958;DHT22;979;51.076;13.748;2023-07-24T19:45:56;23.70;62.70
1958;DHT22;979;51.076;13.748;2023-07-24T19:49:37;23.20;63.90
1958;DHT22;979;51.076;13.748;2023-07-24T19:53:19;23.10;64.90
1958;DHT22;979;51.076;13.748;2023-07-24T20:24:28;22.10;67.70
1958;DHT22;979;51.076;13.748;2023-07-24T20:27:35;22.20;69.00
1958;DHT22;979;51.076;13.748;2023-07-24T20:30:26;22.20;68.40
1958;DHT22;979;51.076;13.748;2023-07-24T20:33:26;22.20;69.40
1958;DHT22;979;51.076;13.748;2023-07-24T20:36:16;22.30;69.50
1958;DHT22;979;51.076;13.748;2023-07-24T20:38:59;22.30;69.40
1958;DHT22;979;51.076;13.748;2023-07-24T20:41:44;22.30;69.60
1958;DHT22;979;51.076;13.748;2023-07-24T20:44:30;22.40;69.80
1958;DHT22;979;51.076;13.748;2023-07-24T20:47:22;22.30;69.80
1958;DHT22;979;51.076;13.748;2023-07-24T20:50:11;22.50;70.10
1958;DHT22;979;51.076;13.748;2023-07-24T20:56:56;22.20;69.40
1958;DHT22;979;51.076;13.748;2023-07-24T21:03:20;22.50;69.60
1958;DHT22;979;51.076;13.748;2023-07-24T21:27:43;21.30;73.30
1958;DHT22;979;51.076;13.748;2023-07-24T21:30:36;21.10;74.30
1958;DHT22;979;51.076;13.748;2023-07-24T21:33:07;21.00;74.60
1958;DHT22;979;51.076;13.748;2023-07-24T21:35:40;21.00;75.30
1958;DHT22;979;51.076;13.748;2023-07-24T21:38:42;21.00;75.60
1958;DHT22;979;51.076;13.748;2023-07-24T21:45:00;20.90;75.80
1958;DHT22;979;51.076;13.748;2023-07-24T21:48:27;21.00;76.10
1958;DHT22;979;51.076;13.748;2023-07-24T21:51:30;21.00;76.00
1958;DHT22;979;51.076;13.748;2023-07-24T21:57:32;20.90;76.10
1958;DHT22;979;51.076;13.748;2023-07-24T22:00:38;20.90;76.50
1958;DHT22;979;51.076;13.748;2023-07-24T22:03:36;20.90;76.00
1958;DHT22;979;51.076;13.748;2023-07-24T22:06:06;20.90;76.30
1958;DHT22;979;51.076;13.748;2023-07-24T22:09:11;20.80;76.40
1958;DHT22;979;51.076;13.748;2023-07-24T22:12:56;21.00;76.80
1958;DHT22;979;51.076;13.748;2023-07-24T22:15:46;20.60;76.00
1958;DHT22;979;51.076;13.748;2023-07-24T22:19:11;21.00;77.30
1958;DHT22;979;51.076;13.748;2023-07-24T22:21:54;20.80;76.70
1958;DHT22;979;51.076;13.748;2023-07-24T22:24:36;20.50;76.80
1958;DHT22;979;51.076;13.748;2023-07-24T22:27:16;20.60;77.30
1958;DHT22;979;51.076;13.748;2023-07-24T22:29:54;20.60;77.20
1958;DHT22;979;51.076;13.748;2023-07-24T22:32:44;20.70;77.70
1958;DHT22;979;51.076;13.748;2023-07-24T22:35:56;20.50;77.70
1958;DHT22;979;51.076;13.748;2023-07-24T22:38:40;20.60;77.40
1958;DHT22;979;51.076;13.748;2023-07-24T22:41:14;20.50;77.50
1958;DHT22;979;51.076;13.748;2023-07-24T22:43:46;20.50;77.50
1958;DHT22;979;51.076;13.748;2023-07-24T22:49:08;20.60;77.50
1958;DHT22;979;51.076;13.748;2023-07-24T22:51:50;20.50;77.80
1958;DHT22;979;51.076;13.748;2023-07-24T22:54:25;20.50;78.00
1958;DHT22;979;51.076;13.748;2023-07-24T22:57:09;20.40;78.80
1958;DHT22;979;51.076;13.748;2023-07-24T22:59:57;20.40;78.00
1958;DHT22;979;51.076;13.748;2023-07-24T23:03:25;20.50;77.70
1958;DHT22;979;51.076;13.748;2023-07-24T23:07:24;20.40;77.70
1958;DHT22;979;51.076;13.748;2023-07-24T23:10:32;20.30;77.80
1958;DHT22;979;51.076;13.748;2023-07-24T23:13:33;20.20;77.90
1958;DHT22;979;51.076;13.748;2023-07-24T23:19:33;20.30;78.00
1958;DHT22;979;51.076;13.748;2023-07-24T23:27:10;20.30;78.20
1958;DHT22;979;51.076;13.748;2023-07-24T23:30:11;20.40;78.60
1958;DHT22;979;51.076;13.748;2023-07-24T23:36:11;20.40;78.20
1958;DHT22;979;51.076;13.748;2023-07-24T23:39:43;20.40;78.30
1958;DHT22;979;51.076;13.748;2023-07-24T23:42:49;20.50;78.00
1958;DHT22;979;51.076;13.748;2023-07-24T23:45:46;20.30;78.20
1958;DHT22;979;51.076;13.748;2023-07-24T23:49:57;20.70;78.60
1958;DHT22;979;51.076;13.748;2023-07-24T23:53:00;20.80;78.60